Time;durP1;ratioP1;P1;durP2;ratioP2;P2;SDS_P1;SDS_P2;PMS_P1;PMS_P2;Temp;Humidity;BMP_temperature;BMP_pressure;BME280_temperature;BME280_humidity;BME280_pressure;Samples;Min_cycle;Max_cycle;Signal;HPM_P1;HPM_P2
2022/03/17 00:02:03;;;;;;;;;;;;;;;9.84;100.00;98702.41;5121425;28;20061;-60
2022/03/17 00:04:30;;;;;;;;;;;;;;;9.79;100.00;98700.44;5123294;28;19930;-60
2022/03/17 00:06:58;;;;;;;;;;;;;;;9.64;100.00;98703.66;5122595;28;19919;-61
2022/03/17 00:09:24;;;;;;;;;;;;;;;9.71;100.00;98706.19;5119750;28;20026;-61
2022/03/17 00:11:52;;;;;;;;;;;;;;;9.75;100.00;98713.44;5120520;28;19962;-61
2022/03/17 00:14:18;;;;;;;;;;;;;;;9.77;100.00;98706.03;5111323;28;20358;-61
2022/03/17 00:16:45;;;;;;;;;;;;;;;9.57;100.00;98691.47;5111361;28;19993;-61
2022/03/17 00:19:11;;;;;;;;;;;;;;;9.50;100.00;98688.94;5111087;28;20004;-61
2022/03/17 00:21:38;;;;;;;;;;;;;;;9.24;100.00;98697.50;5110946;28;19987;-61
2022/03/17 00:24:07;;;;;;;;;;;;;;;9.12;100.00;98692.19;5111095;28;19924;-61
2022/03/17 00:26:34;;;;;;;;;;;;;;;9.20;100.00;98697.16;5111069;28;19928;-61
2022/03/17 00:29:00;;;;;;;;;;;;;;;9.25;100.00;98683.13;5110961;28;20023;-60
2022/03/17 00:31:27;;;;;;;;;;;;;;;9.40;100.00;98688.78;5111038;28;20003;-60
2022/03/17 00:33:54;;;;;;;;;;;;;;;9.70;100.00;98683.22;5111011;28;19924;-60
2022/03/17 00:36:20;;;;;;;;;;;;;;;9.82;100.00;98686.63;5110869;28;19930;-60
2022/03/17 00:38:48;;;;;;;;;;;;;;;9.93;100.00;98679.63;5110949;28;19931;-60
2022/03/17 00:41:15;;;;;;;;;;;;;;;9.96;100.00;98684.50;5110489;28;19987;-59
2022/03/17 00:43:42;;;;;;;;;;;;;;;9.96;100.00;98692.50;5120224;28;19967;-60
2022/03/17 00:46:08;;;;;;;;;;;;;;;10.00;100.00;98677.59;5121784;28;19924;-60
2022/03/17 00:48:34;;;;;;;;;;;;;;;10.03;100.00;98690.47;5122752;28;19928;-60
2022/03/17 00:51:01;;;;;;;;;;;;;;;10.00;100.00;98694.44;5121366;28;19930;-60
2022/03/17 00:53:27;;;;;;;;;;;;;;;10.00;100.00;98694.44;5119110;28;19931;-59
2022/03/17 00:55:53;;;;;;;;;;;;;;;10.01;100.00;98696.06;5119174;28;19999;-60
2022/03/17 00:58:22;;;;;;;;;;;;;;;9.98;100.00;98704.53;5122657;28;19924;-60
2022/03/17 01:00:49;;;;;;;;;;;;;;;9.98;100.00;98703.72;5122492;28;19928;-59
2022/03/17 01:03:15;;;;;;;;;;;;;;;9.94;100.00;98710.59;5119336;28;19935;-59
2022/03/17 01:05:42;;;;;;;;;;;;;;;9.90;100.00;98710.28;5119260;28;19935;-60
2022/03/17 01:08:08;;;;;;;;;;;;;;;9.94;100.00;98716.75;5121248;28;19920;-60
2022/03/17 01:10:35;;;;;;;;;;;;;;;9.96;100.00;98720.00;5122510;28;19983;-60
2022/03/17 01:13:02;;;;;;;;;;;;;;;9.95;100.00;98721.03;5121848;28;19923;-60
2022/03/17 01:15:30;;;;;;;;;;;;;;;9.96;100.00;98713.84;5118837;28;19988;-60
2022/03/17 01:17:56;;;;;;;;;;;;;;;10.01;100.00;98701.41;5119430;28;19927;-60
2022/03/17 01:20:23;;;;;;;;;;;;;;;9.73;100.00;98701.41;5122344;28;19983;-60
2022/03/17 01:22:49;;;;;;;;;;;;;;;9.63;100.00;98702.03;5122233;28;20574;-61
2022/03/17 01:25:15;;;;;;;;;;;;;;;9.58;100.00;98695.78;5118834;28;19985;-61
2022/03/17 01:27:42;;;;;;;;;;;;;;;9.37;100.00;98697.25;5118785;28;19943;-60
2022/03/17 01:30:09;;;;;;;;;;;;;;;9.17;100.00;98694.97;5120876;28;20018;-60
2022/03/17 01:32:38;;;;;;;;;;;;;;;9.06;100.00;98698.47;5122415;28;20470;-61
2022/03/17 01:35:05;;;;;;;;;;;;;;;8.78;100.00;98690.38;5102028;28;19947;-60
2022/03/17 01:37:31;;;;;;;;;;;;;;;8.67;100.00;98689.31;5118396;28;20002;-61
2022/03/17 01:39:57;;;;;;;;;;;;;;;8.98;100.00;98696.13;5119321;28;19931;-61
2022/03/17 01:42:24;;;;;;;;;;;;;;;9.21;100.00;98690.78;5104563;28;19983;-61
2022/03/17 01:44:50;;;;;;;;;;;;;;;9.08;100.00;98676.91;5121883;28;19951;-61
2022/03/17 01:47:29;;;;;;;;;;;;;;;8.93;100.00;98681.91;5118443;28;19934;-61
2022/03/17 01:49:58;;;;;;;;;;;;;;;9.03;100.00;98680.28;5119007;28;19963;-60
2022/03/17 01:52:24;;;;;;;;;;;;;;;9.06;100.00;98687.00;5122016;28;19946;-60
2022/03/17 01:54:51;;;;;;;;;;;;;;;9.05;100.00;98680.84;5122066;28;19967;-60
2022/03/17 01:57:17;;;;;;;;;;;;;;;8.94;100.00;98687.00;5109874;28;19942;-61
2022/03/17 01:59:44;;;;;;;;;;;;;;;8.85;100.00;98677.72;5110200;28;19924;-61
2022/03/17 02:02:11;;;;;;;;;;;;;;;8.84;100.00;98693.97;5109972;28;19963;-60
2022/03/17 02:04:40;;;;;;;;;;;;;;;9.00;100.00;98682.59;5110043;28;19995;-61
2022/03/17 02:07:09;;;;;;;;;;;;;;;9.04;100.00;98681.88;5113585;28;19924;-61
2022/03/17 02:09:39;;;;;;;;;;;;;;;9.18;100.00;98685.94;5113982;28;19928;-61
2022/03/17 02:14:51;;;;;;;;;;;;;;;9.45;100.00;98686.19;5125901;28;20022;-59
2022/03/17 02:17:17;;;;;;;;;;;;;;;9.45;100.00;98680.88;5113835;28;19991;-61
2022/03/17 02:19:44;;;;;;;;;;;;;;;9.26;100.00;98682.06;5113776;28;19947;-60
2022/03/17 02:22:12;;;;;;;;;;;;;;;9.06;100.00;98684.31;5113553;28;19924;-60
2022/03/17 02:27:26;;;;;;;;;;;;;;;9.19;100.00;98676.09;5113502;28;19985;-61
2022/03/17 02:29:53;;;;;;;;;;;;;;;9.13;100.00;98671.66;5113878;28;19925;-60
2022/03/17 02:32:20;;;;;;;;;;;;;;;9.28;100.00;98666.69;5125649;28;19927;-60
2022/03/17 02:34:46;;;;;;;;;;;;;;;9.34;100.00;98664.91;5125574;28;19924;-60
2022/03/17 02:37:13;;;;;;;;;;;;;;;9.35;100.00;98671.84;5122199;28;19963;-60
2022/03/17 02:39:42;;;;;;;;;;;;;;;9.42;100.00;98670.69;5121632;28;19924;-61
2022/03/17 02:42:10;;;;;;;;;;;;;;;9.41;100.00;98670.94;5124422;28;19924;-60
2022/03/17 02:44:36;;;;;;;;;;;;;;;9.03;100.00;98661.63;5125357;28;19928;-61
2022/03/17 02:47:03;;;;;;;;;;;;;;;8.71;100.00;98659.56;5123399;28;19927;-60
2022/03/17 02:49:29;;;;;;;;;;;;;;;8.60;100.00;98663.88;5121399;28;19924;-60
2022/03/17 02:51:56;;;;;;;;;;;;;;;8.62;100.00;98653.78;5122086;28;19946;-61
2022/03/17 02:54:22;;;;;;;;;;;;;;;8.86;100.00;98655.38;5124788;28;19979;-61
2022/03/17 02:56:50;;;;;;;;;;;;;;;9.06;100.00;98660.34;5125016;28;19942;-61
2022/03/17 02:59:17;;;;;;;;;;;;;;;8.83;100.00;98658.50;5121381;28;19991;-60
2022/03/17 03:01:44;;;;;;;;;;;;;;;8.63;100.00;98650.09;5121332;28;19948;-59
2022/03/17 03:04:13;;;;;;;;;;;;;;;8.43;100.00;98650.44;5123927;28;19924;-60
2022/03/17 03:06:39;;;;;;;;;;;;;;;8.44;100.00;98659.22;5124828;28;19924;-61
2022/03/17 03:09:06;;;;;;;;;;;;;;;8.72;100.00;98664.69;5122567;28;19947;-61
2022/03/17 03:11:32;;;;;;;;;;;;;;;8.92;100.00;98657.13;5121118;28;19959;-60
2022/03/17 03:14:00;;;;;;;;;;;;;;;9.04;100.00;98652.56;5122838;28;19948;-61
2022/03/17 03:16:26;;;;;;;;;;;;;;;8.91;100.00;98639.50;5123840;28;20144;-59
2022/03/17 03:18:52;;;;;;;;;;;;;;;8.51;100.00;98642.09;5123360;28;19987;-61
2022/03/17 03:21:19;;;;;;;;;;;;;;;8.56;100.00;98650.22;5120704;28;19959;-61
2022/03/17 03:23:46;;;;;;;;;;;;;;;8.53;100.00;98649.84;5120722;28;19920;-61
2022/03/17 03:26:12;;;;;;;;;;;;;;;8.42;100.00;98651.47;5123463;28;19963;-60
2022/03/17 03:28:39;;;;;;;;;;;;;;;8.24;100.00;98640.88;5124235;28;19952;-62
2022/03/17 03:31:08;;;;;;;;;;;;;;;8.18;100.00;98636.50;5122179;28;19931;-61
2022/03/17 03:33:34;;;;;;;;;;;;;;;8.66;100.00;98647.75;5120761;28;19995;-60
2022/03/17 03:38:47;;;;;;;;;;;;;;;8.95;100.00;98653.97;5124173;28;20015;-60
2022/03/17 03:41:13;;;;;;;;;;;;;;;9.02;100.00;98656.53;5120807;28;19935;-60
2022/03/17 03:43:40;;;;;;;;;;;;;;;9.11;100.00;98655.13;5121203;28;20357;-60
2022/03/17 03:46:07;;;;;;;;;;;;;;;9.01;100.00;98652.22;5122252;28;20003;-60
2022/03/17 03:48:34;;;;;;;;;;;;;;;8.95;100.00;98651.31;5124034;28;19920;-60
2022/03/17 03:51:00;;;;;;;;;;;;;;;8.79;100.00;98646.69;5122578;28;20463;-60
2022/03/17 03:54:12;;;;;;;;;;;;;;;8.50;100.00;98643.16;5120314;28;19947;-61
2022/03/17 03:56:13;;;;;;;;;;;;;;;8.09;100.00;98644.00;5122925;28;19923;-61
2022/03/17 03:58:39;;;;;;;;;;;;;;;7.95;100.00;98647.09;5105614;28;19926;-61
2022/03/17 04:01:07;;;;;;;;;;;;;;;7.76;100.00;98640.22;5121185;28;19995;-61
2022/03/17 04:03:38;;;;;;;;;;;;;;;7.60;100.00;98645.16;5119714;28;20005;-61
2022/03/17 04:06:04;;;;;;;;;;;;;;;7.79;100.00;98637.13;5121346;28;19955;-61
2022/03/17 04:08:30;;;;;;;;;;;;;;;7.74;100.00;98642.28;5123363;28;19987;-61
2022/03/17 04:10:57;;;;;;;;;;;;;;;8.34;100.00;98651.00;5122575;28;19924;-61
2022/03/17 04:13:23;;;;;;;;;;;;;;;8.54;100.00;98644.28;5120485;28;19988;-61
2022/03/17 04:15:49;;;;;;;;;;;;;;;8.76;100.00;98654.38;5119561;28;19992;-60
2022/03/17 04:18:17;;;;;;;;;;;;;;;8.85;100.00;98655.63;5122812;28;20030;-60
2022/03/17 04:20:44;;;;;;;;;;;;;;;8.91;100.00;98655.47;5122942;28;19995;-60
2022/03/17 04:23:10;;;;;;;;;;;;;;;8.94;100.00;98654.22;5120184;28;19957;-60
2022/03/17 04:25:37;;;;;;;;;;;;;;;8.95;100.00;98647.84;5119379;28;20052;-60
2022/03/17 04:28:04;;;;;;;;;;;;;;;8.79;100.00;98643.25;5120893;28;19958;-60
2022/03/17 04:30:33;;;;;;;;;;;;;;;8.92;100.00;98648.31;5122940;28;19930;-60
2022/03/17 04:32:59;;;;;;;;;;;;;;;8.90;100.00;98653.06;5121869;28;19923;-60
2022/03/17 04:35:27;;;;;;;;;;;;;;;8.83;100.00;98652.38;5119331;28;19958;-60
2022/03/17 04:37:53;;;;;;;;;;;;;;;8.90;100.00;98655.72;5101369;28;20027;-60
2022/03/17 04:40:20;;;;;;;;;;;;;;;8.96;100.00;98660.94;5122685;28;20008;-60
2022/03/17 04:42:46;;;;;;;;;;;;;;;8.97;100.00;98659.09;5123430;28;19991;-60
2022/03/17 04:45:12;;;;;;;;;;;;;;;8.98;100.00;98666.03;5119723;28;20001;-60
2022/03/17 04:47:39;;;;;;;;;;;;;;;8.99;100.00;98664.97;5118961;28;19978;-60
2022/03/17 04:50:06;;;;;;;;;;;;;;;9.00;100.00;98664.75;5121066;28;19924;-60
2022/03/17 04:55:17;;;;;;;;;;;;;;;8.74;100.00;98672.41;5118609;28;19942;-61
2022/03/17 04:57:44;;;;;;;;;;;;;;;8.39;100.00;98675.88;5118629;28;19928;-60
2022/03/17 05:00:12;;;;;;;;;;;;;;;8.22;100.00;98679.41;5121185;28;19962;-60
2022/03/17 05:02:38;;;;;;;;;;;;;;;8.51;100.00;98674.03;5122144;28;19945;-61
2022/03/17 05:05:05;;;;;;;;;;;;;;;8.67;100.00;98685.84;5120567;28;19987;-60
2022/03/17 05:07:31;;;;;;;;;;;;;;;8.71;100.00;98695.00;5118609;28;19955;-61
2022/03/17 05:09:59;;;;;;;;;;;;;;;8.79;100.00;98696.53;5119052;28;19947;-60
2022/03/17 05:12:26;;;;;;;;;;;;;;;8.84;100.00;98699.28;5122795;28;19934;-60
2022/03/17 05:14:53;;;;;;;;;;;;;;;8.81;100.00;98707.75;5121918;28;19927;-59
2022/03/17 05:17:19;;;;;;;;;;;;;;;8.81;100.00;98711.22;5118725;28;19935;-61
2022/03/17 05:19:45;;;;;;;;;;;;;;;8.78;100.00;98713.53;5118374;28;20035;-61
2022/03/17 05:22:12;;;;;;;;;;;;;;;8.57;100.00;98714.91;5120980;28;21764;-61
2022/03/17 05:24:38;;;;;;;;;;;;;;;8.60;100.00;98725.09;5121946;28;19932;-61
2022/03/17 05:27:06;;;;;;;;;;;;;;;8.65;100.00;98726.03;5120111;28;19924;-61
2022/03/17 05:29:32;;;;;;;;;;;;;;;8.75;100.00;98735.31;5118632;28;19952;-61
2022/03/17 05:31:58;;;;;;;;;;;;;;;8.78;100.00;98737.50;5101435;28;19925;-61
2022/03/17 05:34:25;;;;;;;;;;;;;;;8.80;100.00;98725.56;5122104;28;19924;-61
2022/03/17 05:36:51;;;;;;;;;;;;;;;8.82;100.00;98730.69;5122099;28;19996;-61
2022/03/17 05:39:18;;;;;;;;;;;;;;;8.81;100.00;98723.72;5109840;28;19991;-61
2022/03/17 05:41:44;;;;;;;;;;;;;;;8.67;100.00;98733.78;5112754;28;19932;-59
2022/03/17 05:44:12;;;;;;;;;;;;;;;8.43;100.00;98738.25;5125737;28;19924;-60
2022/03/17 05:46:38;;;;;;;;;;;;;;;8.06;100.00;98729.59;5125714;28;19924;-59
2022/03/17 05:49:04;;;;;;;;;;;;;;;7.82;100.00;98727.88;5123928;28;20558;-60
2022/03/17 05:51:31;;;;;;;;;;;;;;;7.74;100.00;98730.84;5122321;28;20015;-60
2022/03/17 05:53:57;;;;;;;;;;;;;;;8.15;100.00;98732.72;5123183;28;19992;-61
2022/03/17 05:56:23;;;;;;;;;;;;;;;8.38;100.00;98740.00;5125891;28;19928;-61
2022/03/17 05:58:50;;;;;;;;;;;;;;;8.25;100.00;98740.97;5125938;28;19924;-61
2022/03/17 06:01:17;;;;;;;;;;;;;;;8.06;100.00;98739.41;5122267;28;20389;-60
2022/03/17 06:03:44;;;;;;;;;;;;;;;7.61;100.00;98742.44;5104055;28;19995;-61
2022/03/17 06:06:10;;;;;;;;;;;;;;;7.56;100.00;98750.28;5124517;28;19958;-60
2022/03/17 06:08:36;;;;;;;;;;;;;;;7.79;100.00;98748.78;5125643;28;20348;-60
2022/03/17 06:11:04;;;;;;;;;;;;;;;8.08;100.00;98756.75;5123843;28;19928;-60
2022/03/17 06:13:31;;;;;;;;;;;;;;;8.28;100.00;98747.72;5122876;28;19925;-61
2022/03/17 06:15:57;;;;;;;;;;;;;;;8.44;100.00;98752.41;5122609;28;19983;-61
2022/03/17 06:18:25;;;;;;;;;;;;;;;8.44;100.00;98755.06;5125149;28;19924;-60
2022/03/17 06:20:51;;;;;;;;;;;;;;;8.49;100.00;98758.66;5125143;28;19955;-60
2022/03/17 06:23:17;;;;;;;;;;;;;;;8.38;100.00;98758.63;5121408;28;19920;-60
2022/03/17 06:25:44;;;;;;;;;;;;;;;8.51;100.00;98756.56;5121602;28;19924;-60
2022/03/17 06:28:10;;;;;;;;;;;;;;;8.60;100.00;98770.38;5124109;28;19958;-59
2022/03/17 06:30:37;;;;;;;;;;;;;;;8.70;100.00;98772.47;5124855;28;19931;-60
2022/03/17 06:33:05;;;;;;;;;;;;;;;8.60;100.00;98765.03;5123378;28;19927;-60
2022/03/17 06:35:33;;;;;;;;;;;;;;;8.60;100.00;98768.50;5121342;28;19925;-60
2022/03/17 06:38:01;;;;;;;;;;;;;;;8.50;100.00;98768.25;5122638;28;19924;-60
2022/03/17 06:40:29;;;;;;;;;;;;;;;8.61;100.00;98764.81;5124923;28;19931;-60
2022/03/17 06:42:56;;;;;;;;;;;;;;;8.60;100.00;98771.16;5125492;28;19995;-60
2022/03/17 06:45:22;;;;;;;;;;;;;;;8.43;100.00;98778.19;5121209;28;19927;-60
2022/03/17 06:47:49;;;;;;;;;;;;;;;8.24;100.00;98779.25;5121320;28;19987;-61
2022/03/17 06:50:16;;;;;;;;;;;;;;;8.40;100.00;98789.28;5124149;28;19928;-60
2022/03/17 06:52:44;;;;;;;;;;;;;;;8.46;100.00;98787.56;5124434;28;19962;-60
2022/03/17 06:55:11;;;;;;;;;;;;;;;8.41;100.00;98782.94;5122009;28;19962;-60
2022/03/17 06:57:37;;;;;;;;;;;;;;;8.47;100.00;98778.56;5121086;28;19983;-60
2022/03/17 07:00:04;;;;;;;;;;;;;;;8.62;100.00;98779.75;5122687;28;20024;-60
2022/03/17 07:02:31;;;;;;;;;;;;;;;8.61;100.00;98778.13;5124255;28;19987;-60
2022/03/17 07:04:57;;;;;;;;;;;;;;;8.54;100.00;98789.94;5123713;28;20011;-60
2022/03/17 07:07:24;;;;;;;;;;;;;;;8.58;100.00;98793.72;5120832;28;19924;-60
2022/03/17 07:09:51;;;;;;;;;;;;;;;8.59;100.00;98793.53;5120794;28;19920;-61
2022/03/17 07:12:18;;;;;;;;;;;;;;;8.47;100.00;98790.03;5116534;28;19959;-60
2022/03/17 07:14:44;;;;;;;;;;;;;;;8.36;100.00;98790.78;5124302;28;19954;-60
2022/03/17 07:17:10;;;;;;;;;;;;;;;8.14;100.00;98789.63;5121526;28;19945;-60
2022/03/17 07:19:37;;;;;;;;;;;;;;;7.73;100.00;98798.38;5120624;28;20335;-60
2022/03/17 07:22:04;;;;;;;;;;;;;;;7.83;100.00;98800.50;5122129;28;19924;-62
2022/03/17 07:24:31;;;;;;;;;;;;;;;7.89;100.00;98797.72;5123826;28;19930;-61
2022/03/17 07:26:59;;;;;;;;;;;;;;;8.03;100.00;98809.03;5123066;28;20018;-61
2022/03/17 07:29:28;;;;;;;;;;;;;;;8.23;100.00;98804.28;5120135;28;20061;-61
2022/03/17 07:31:56;;;;;;;;;;;;;;;8.54;100.00;98793.38;5120207;28;19930;-60
2022/03/17 07:34:23;;;;;;;;;;;;;;;8.67;100.00;98811.81;5123339;28;20022;-60
2022/03/17 07:36:51;;;;;;;;;;;;;;;8.80;100.00;98808.13;5123438;28;19987;-60
2022/03/17 07:39:17;;;;;;;;;;;;;;;8.89;100.00;98811.25;5119916;28;19920;-60
2022/03/17 07:41:44;;;;;;;;;;;;;;;8.89;100.00;98806.75;5119685;28;19924;-61
2022/03/17 07:44:13;;;;;;;;;;;;;;;8.88;100.00;98807.00;5123329;28;19935;-60
2022/03/17 07:46:40;;;;;;;;;;;;;;;8.70;100.00;98807.09;5123469;28;20013;-60
2022/03/17 07:49:06;;;;;;;;;;;;;;;8.76;100.00;98801.63;5121419;28;19951;-61
2022/03/17 07:51:32;;;;;;;;;;;;;;;8.97;100.00;98813.63;5119916;28;19959;-60
2022/03/17 07:53:59;;;;;;;;;;;;;;;9.03;100.00;98812.69;5120497;28;19992;-60
2022/03/17 07:56:25;;;;;;;;;;;;;;;9.00;100.00;98805.16;5123254;28;20023;-60
2022/03/17 07:58:51;;;;;;;;;;;;;;;9.04;100.00;98811.63;5123215;28;19924;-60
2022/03/17 08:01:24;;;;;;;;;;;;;;;9.02;100.00;98811.06;5110996;28;19924;-61
2022/03/17 08:03:50;;;;;;;;;;;;;;;9.11;100.00;98813.16;5110363;28;20408;-60
2022/03/17 08:06:18;;;;;;;;;;;;;;;9.03;100.00;98816.16;5110804;28;19924;-60
2022/03/17 08:08:46;;;;;;;;;;;;;;;8.91;100.00;98817.19;5110973;28;19973;-60
2022/03/17 08:11:12;;;;;;;;;;;;;;;8.87;100.00;98818.69;5110805;28;19924;-60
2022/03/17 08:13:38;;;;;;;;;;;;;;;8.90;100.00;98826.22;5120344;28;19991;-60
2022/03/17 08:16:06;;;;;;;;;;;;;;;9.02;100.00;98822.53;5120959;28;19955;-60
2022/03/17 08:18:34;;;;;;;;;;;;;;;9.19;100.00;98825.34;5122900;28;19920;-60
2022/03/17 08:21:00;;;;;;;;;;;;;;;9.11;100.00;98821.13;5121710;28;19962;-62
2022/03/17 08:23:27;;;;;;;;;;;;;;;9.22;100.00;98815.00;5101229;28;19928;-61
2022/03/17 08:25:53;;;;;;;;;;;;;;;9.28;100.00;98812.47;5119198;28;19991;-61
2022/03/17 08:28:20;;;;;;;;;;;;;;;9.23;100.00;98823.81;5104538;28;19930;-61
2022/03/17 08:30:47;;;;;;;;;;;;;;;9.28;100.00;98818.59;5122734;28;19951;-61
2022/03/17 08:33:14;;;;;;;;;;;;;;;9.43;100.00;98818.13;5119723;28;20003;-61
2022/03/17 08:35:41;;;;;;;;;;;;;;;9.30;100.00;98821.84;5119199;28;19924;-61
2022/03/17 08:38:08;;;;;;;;;;;;;;;9.33;100.00;98826.72;5121315;28;19966;-60
2022/03/17 08:40:35;;;;;;;;;;;;;;;9.30;100.00;98821.03;5122605;28;19923;-60
2022/03/17 08:43:01;;;;;;;;;;;;;;;9.35;100.00;98819.28;5122419;28;20018;-60
2022/03/17 08:50:56;;;;;;;;;;;;;;;9.31;100.00;98818.16;5121590;28;19919;-60
2022/03/17 08:53:23;;;;;;;;;;;;;;;9.08;100.00;98829.59;5118811;28;19954;-61
2022/03/17 08:55:49;;;;;;;;;;;;;;;9.30;100.00;98832.50;5118785;28;19930;-60
2022/03/17 08:58:16;;;;;;;;;;;;;;;9.43;100.00;98828.78;5121800;28;19955;-60
2022/03/17 09:00:42;;;;;;;;;;;;;;;9.61;100.00;98839.31;5122332;28;19958;-60
2022/03/17 09:03:09;;;;;;;;;;;;;;;9.47;100.00;98836.06;5120068;28;20579;-60
2022/03/17 09:05:35;;;;;;;;;;;;;;;9.28;100.00;98847.94;5118829;28;20019;-61
2022/03/17 09:08:04;;;;;;;;;;;;;;;9.39;100.00;98846.28;5120086;28;19955;-60
2022/03/17 09:10:31;;;;;;;;;;;;;;;9.43;100.00;98842.94;5122280;28;19955;-60
2022/03/17 09:12:57;;;;;;;;;;;;;;;9.41;100.00;98847.66;5122626;28;19955;-60
2022/03/17 09:15:24;;;;;;;;;;;;;;;9.48;100.00;98839.56;5117603;28;19924;-61
2022/03/17 09:17:51;;;;;;;;;;;;;;;9.29;100.00;98836.19;5118678;28;19925;-60
2022/03/17 09:20:17;;;;;;;;;;;;;;;9.38;100.00;98842.00;5121892;28;20010;-60
2022/03/17 09:22:43;;;;;;;;;;;;;;;9.29;100.00;98838.06;5121843;28;19955;-61
2022/03/17 09:25:12;;;;;;;;;;;;;;;9.22;100.00;98832.88;5119286;28;20027;-61
2022/03/17 09:27:38;;;;;;;;;;;;;;;9.32;100.00;98841.06;5118260;28;19976;-61
2022/03/17 09:30:06;;;;;;;;;;;;;;;9.30;100.00;98829.84;5120052;28;19943;-61
2022/03/17 09:32:32;;;;;;;;;;;;;;;9.48;100.00;98837.72;5121799;28;19983;-60
2022/03/17 09:34:59;;;;;;;;;;;;;;;9.52;100.00;98843.38;5120961;28;19959;-60
2022/03/17 09:37:25;;;;;;;;;;;;;;;9.40;100.00;98837.25;5118254;28;19930;-60
2022/03/17 09:39:52;;;;;;;;;;;;;;;9.46;100.00;98834.47;5118035;28;19924;-60
2022/03/17 09:42:20;;;;;;;;;;;;;;;9.70;100.00;98837.91;5125227;28;19925;-61
2022/03/17 09:44:48;;;;;;;;;;;;;;;9.71;100.00;98844.88;5109628;28;20041;-60
2022/03/17 09:47:18;;;;;;;;;;;;;;;9.64;100.00;98839.66;5109667;28;19977;-60
2022/03/17 09:49:46;;;;;;;;;;;;;;;9.66;100.00;98837.56;5109846;28;19927;-61
2022/03/17 09:52:14;;;;;;;;;;;;;;;9.77;100.00;98839.41;5109594;28;19920;-60
2022/03/17 09:54:41;;;;;;;;;;;;;;;9.57;100.00;98844.31;5109705;28;19931;-60
2022/03/17 09:57:08;;;;;;;;;;;;;;;9.73;100.00;98846.25;5109743;28;19987;-61
2022/03/17 09:59:35;;;;;;;;;;;;;;;9.92;100.00;98846.09;5109641;28;19924;-61
2022/03/17 10:02:02;;;;;;;;;;;;;;;9.88;100.00;98851.09;5109603;28;19959;-60
2022/03/17 10:04:30;;;;;;;;;;;;;;;9.95;100.00;98856.31;5118045;28;19992;-61
2022/03/17 10:06:58;;;;;;;;;;;;;;;10.13;100.00;98858.81;5100380;28;19959;-60
2022/03/17 10:09:24;;;;;;;;;;;;;;;10.33;100.00;98855.78;5121587;28;19926;-60
2022/03/17 10:12:00;;;;;;;;;;;;;;;10.36;100.00;98863.31;5121419;28;19930;-60
2022/03/17 10:14:36;;;;;;;;;;;;;;;10.52;100.00;98852.66;5109492;28;19934;-60
2022/03/17 10:17:04;;;;;;;;;;;;;;;10.39;100.00;98858.31;5091504;28;20027;-60
2022/03/17 10:19:32;;;;;;;;;;;;;;;10.81;100.00;98858.78;5109354;28;19948;-60
2022/03/17 10:22:06;;;;;;;;;;;;;;;10.75;100.00;98857.88;5109387;28;19924;-61
2022/03/17 10:24:33;;;;;;;;;;;;;;;10.69;100.00;98864.19;5109239;28;20014;-60
2022/03/17 10:27:01;;;;;;;;;;;;;;;10.53;100.00;98869.47;5110972;28;19939;-60
2022/03/17 10:29:27;;;;;;;;;;;;;;;10.20;100.00;98863.00;5113273;28;19987;-61
2022/03/17 10:31:56;;;;;;;;;;;;;;;10.47;100.00;98871.25;5113253;28;19991;-61
2022/03/17 10:34:24;;;;;;;;;;;;;;;10.53;100.00;98861.47;5113241;28;19950;-59
2022/03/17 10:36:50;;;;;;;;;;;;;;;10.66;100.00;98864.69;5113198;28;19932;-60
2022/03/17 10:39:17;;;;;;;;;;;;;;;10.69;98.56;98856.19;5113062;28;19951;-60
2022/03/17 10:41:44;;;;;;;;;;;;;;;10.62;96.28;98866.19;5112933;28;19959;-61
2022/03/17 10:44:11;;;;;;;;;;;;;;;10.47;95.15;98859.75;5113026;28;19919;-61
2022/03/17 10:46:37;;;;;;;;;;;;;;;10.47;94.62;98857.91;5113166;28;19995;-60
2022/03/17 10:49:06;;;;;;;;;;;;;;;10.58;96.29;98851.72;5112738;28;19962;-60
2022/03/17 10:51:33;;;;;;;;;;;;;;;10.62;94.33;98855.50;5112656;28;19928;-60
2022/03/17 10:54:08;;;;;;;;;;;;;;;10.54;92.64;98863.91;5103145;28;20184;-60
2022/03/17 10:56:35;;;;;;;;;;;;;;;10.48;92.20;98861.41;5112830;28;19924;-60
2022/03/17 10:59:01;;;;;;;;;;;;;;;10.65;93.15;98868.38;5121022;28;19991;-61
2022/03/17 11:01:39;;;;;;;;;;;;;;;10.79;93.60;98861.72;5121070;28;20017;-61
2022/03/17 11:04:07;;;;;;;;;;;;;;;10.68;94.71;98873.25;5122732;28;19924;-61
2022/03/17 11:06:33;;;;;;;;;;;;;;;10.82;93.86;98868.41;5124582;28;19995;-59
2022/03/17 11:09:01;;;;;;;;;;;;;;;10.67;95.26;98860.16;5123706;28;19962;-60
2022/03/17 11:11:31;;;;;;;;;;;;;;;10.82;96.10;98873.78;5120944;28;19932;-60
2022/03/17 11:13:58;;;;;;;;;;;;;;;10.84;94.44;98861.78;5122524;28;19963;-60
2022/03/17 11:16:29;;;;;;;;;;;;;;;10.75;96.35;98857.06;5124321;28;19947;-60
2022/03/17 11:18:56;;;;;;;;;;;;;;;11.04;96.76;98857.84;5123916;28;19930;-60
2022/03/17 11:21:29;;;;;;;;;;;;;;;10.80;95.39;98860.63;5120533;28;19920;-60
2022/03/17 11:23:59;;;;;;;;;;;;;;;10.83;94.26;98870.06;5120879;28;19924;-61
2022/03/17 11:26:29;;;;;;;;;;;;;;;10.95;93.30;98868.13;5124128;28;19923;-61
2022/03/17 11:28:58;;;;;;;;;;;;;;;10.72;96.75;98871.72;5123572;28;19962;-61
2022/03/17 11:31:27;;;;;;;;;;;;;;;10.96;92.73;98875.06;5120284;28;19963;-60
2022/03/17 11:33:58;;;;;;;;;;;;;;;11.01;90.91;98869.00;5120547;28;19924;-60
2022/03/17 11:36:24;;;;;;;;;;;;;;;10.99;91.24;98873.78;5123868;28;19924;-61
2022/03/17 11:39:02;;;;;;;;;;;;;;;10.98;91.78;98864.16;5122736;28;19928;-61
2022/03/17 11:41:30;;;;;;;;;;;;;;;11.09;91.50;98871.28;5119985;28;19955;-61
2022/03/17 11:44:01;;;;;;;;;;;;;;;11.21;89.63;98862.13;5121608;28;19924;-61
2022/03/17 11:46:36;;;;;;;;;;;;;;;11.24;88.86;98864.31;5123535;28;19951;-61
2022/03/17 11:49:17;;;;;;;;;;;;;;;10.70;93.25;98865.00;5122160;28;19920;-61
2022/03/17 11:51:52;;;;;;;;;;;;;;;11.25;93.49;98863.25;5119437;28;19924;-61
2022/03/17 11:54:20;;;;;;;;;;;;;;;11.37;92.66;98860.50;5110953;28;19955;-61
2022/03/17 11:56:47;;;;;;;;;;;;;;;11.49;89.82;98863.06;5111286;28;20019;-61
2022/03/17 11:59:14;;;;;;;;;;;;;;;11.42;89.57;98857.88;5110977;28;19956;-60
2022/03/17 12:01:41;;;;;;;;;;;;;;;11.47;88.30;98860.66;5111072;28;19987;-60
2022/03/17 12:04:09;;;;;;;;;;;;;;;11.36;88.78;98864.22;5110795;28;19987;-60
2022/03/17 12:06:35;;;;;;;;;;;;;;;11.55;87.81;98860.22;5111076;28;19924;-60
2022/03/17 12:09:04;;;;;;;;;;;;;;;11.55;86.98;98868.25;5110842;28;20019;-60
2022/03/17 12:11:32;;;;;;;;;;;;;;;11.63;85.56;98859.81;5110817;28;19935;-60
2022/03/17 12:14:16;;;;;;;;;;;;;;;11.60;83.42;98865.66;5120969;28;19995;-61
2022/03/17 12:16:43;;;;;;;;;;;;;;;11.46;84.46;98861.69;5122743;28;19919;-60
2022/03/17 12:19:09;;;;;;;;;;;;;;;11.38;83.84;98856.78;5119986;28;19987;-60
2022/03/17 12:22:00;;;;;;;;;;;;;;;11.53;87.63;98858.84;5118900;28;20475;-60
2022/03/17 12:24:33;;;;;;;;;;;;;;;11.37;88.80;98858.63;5104624;28;19942;-61
2022/03/17 12:27:04;;;;;;;;;;;;;;;11.35;86.27;98857.25;5110240;28;19932;-61
2022/03/17 12:29:31;;;;;;;;;;;;;;;11.22;88.79;98858.41;5110141;28;20305;-60
2022/03/17 12:32:03;;;;;;;;;;;;;;;11.30;87.74;98855.31;5110043;28;19951;-61
2022/03/17 12:34:29;;;;;;;;;;;;;;;11.44;85.51;98861.13;5110107;28;19995;-61
2022/03/17 12:36:56;;;;;;;;;;;;;;;11.51;82.84;98866.31;5110051;28;19924;-60
2022/03/17 12:39:27;;;;;;;;;;;;;;;11.32;87.10;98860.44;5110121;28;20046;-61
2022/03/17 12:41:53;;;;;;;;;;;;;;;11.44;85.09;98861.13;5110895;28;19951;-61
2022/03/17 12:44:22;;;;;;;;;;;;;;;11.54;82.66;98861.28;5109913;28;20004;-60
2022/03/17 12:46:49;;;;;;;;;;;;;;;11.47;81.08;98871.34;5110141;28;19963;-60
2022/03/17 12:49:15;;;;;;;;;;;;;;;11.42;81.80;98859.78;5109733;28;20486;-61
2022/03/17 12:51:42;;;;;;;;;;;;;;;11.33;83.20;98860.16;5109882;28;20015;-61
2022/03/17 12:54:08;;;;;;;;;;;;;;;11.42;83.04;98849.84;5109839;28;19928;-61
2022/03/17 12:56:46;;;;;;;;;;;;;;;11.32;84.10;98853.22;5110044;28;19920;-61
2022/03/17 12:59:13;;;;;;;;;;;;;;;11.21;86.45;98854.09;5109838;28;19979;-61
2022/03/17 13:01:42;;;;;;;;;;;;;;;11.11;88.54;98839.78;5109557;28;20038;-61
2022/03/17 13:04:08;;;;;;;;;;;;;;;11.23;85.44;98848.53;5109814;28;20018;-61